Time;durP1;ratioP1;P1;durP2;ratioP2;P2;SDS_P1;SDS_P2;PMS_P1;PMS_P2;Temp;Humidity;BMP_temperature;BMP_pressure;BME280_temperature;BME280_humidity;BME280_pressure;Samples;Min_cycle;Max_cycle;Signal;HPM_P1;HPM_P2
2023/08/20 00:04:58;;;;;;;19.13;12.50;;;;;;;18.59;81.52;97925.00;10331614;28;20156;-55
2023/08/20 00:09:57;;;;;;;16.50;11.93;;;;;;;18.24;81.79;97868.25;10330309;28;20069;-55
2023/08/20 00:15:03;;;;;;;16.17;11.88;;;;;;;18.55;81.76;97919.88;10332285;28;20032;-54
2023/08/20 00:20:10;;;;;;;13.70;10.75;;;;;;;18.54;81.79;97921.66;10331978;28;20499;-55
2023/08/20 00:25:09;;;;;;;17.08;11.35;;;;;;;18.58;81.72;97930.31;10331693;28;20851;-55
2023/08/20 00:30:10;;;;;;;14.73;11.38;;;;;;;18.60;82.08;97918.00;10331376;28;20065;-54
2023/08/20 00:35:09;;;;;;;16.58;11.52;;;;;;;18.58;82.14;97911.91;10330495;28;20049;-55
2023/08/20 00:40:09;;;;;;;16.83;11.23;;;;;;;18.54;82.06;97916.38;10331737;28;20037;-54
2023/08/20 00:45:08;;;;;;;18.95;11.20;;;;;;;18.50;81.90;97909.53;10330518;28;20072;-54
2023/08/20 00:50:08;;;;;;;15.63;11.38;;;;;;;18.46;82.26;97907.88;10330234;28;20061;-54
2023/08/20 00:55:09;;;;;;;18.20;13.60;;;;;;;18.29;82.79;97883.88;10330739;28;20045;-54
2023/08/20 01:00:10;;;;;;;17.63;13.82;;;;;;;17.95;83.34;97848.13;10329639;28;20045;-54
2023/08/20 01:05:11;;;;;;;17.58;14.60;;;;;;;18.23;83.30;97900.69;10329649;28;20045;-54
2023/08/20 01:10:19;;;;;;;20.02;13.48;;;;;;;18.14;83.23;97912.31;10330101;28;20076;-55
2023/08/20 01:15:18;;;;;;;18.33;11.68;;;;;;;18.02;83.70;97911.81;10329468;28;20468;-55
2023/08/20 01:20:17;;;;;;;16.60;11.27;;;;;;;18.00;83.69;97914.47;10327876;28;20443;-54
2023/08/20 01:25:58;;;;;;;17.17;12.52;;;;;;;17.96;83.54;97910.22;10329442;28;20064;-55
2023/08/20 01:31:00;;;;;;;15.73;11.02;;;;;;;17.65;83.68;97866.41;10329450;28;20056;-54
2023/08/20 01:35:59;;;;;;;13.70;10.60;;;;;;;17.96;83.72;97910.22;10329439;28;20057;-54
2023/08/20 01:40:58;;;;;;;16.13;11.98;;;;;;;17.95;83.62;97903.25;10330926;28;20080;-54
2023/08/20 01:45:57;;;;;;;18.77;12.15;;;;;;;17.90;83.60;97897.28;10331169;28;20052;-54
2023/08/20 01:50:56;;;;;;;13.55;10.55;;;;;;;17.86;84.00;97891.25;10330025;28;20052;-54
2023/08/20 01:55:55;;;;;;;15.65;11.75;;;;;;;17.77;84.90;97878.38;10330344;28;20192;-54
2023/08/20 02:00:54;;;;;;;14.88;11.25;;;;;;;17.64;85.67;97875.22;10330534;28;20064;-54
2023/08/20 02:05:53;;;;;;;12.98;11.10;;;;;;;17.53;86.00;97874.63;10328113;28;20035;-53
2023/08/20 02:11:00;;;;;;;16.50;12.30;;;;;;;17.51;85.50;97873.81;10330874;28;20108;-56
2023/08/20 02:16:03;;;;;;;15.90;13.55;;;;;;;17.50;85.71;97872.09;10329268;28;20060;-54
2023/08/20 02:21:02;;;;;;;21.88;15.40;;;;;;;17.48;85.53;97866.03;10329536;28;21721;-54
2023/08/20 02:26:02;;;;;;;18.42;14.18;;;;;;;17.45;85.61;97868.72;10329436;28;20488;-56
2023/08/20 02:31:04;;;;;;;16.50;12.65;;;;;;;17.45;85.85;97864.34;10330348;28;20061;-54
2023/08/20 02:36:03;;;;;;;16.60;11.65;;;;;;;17.11;86.01;97823.25;10327817;28;20069;-54
2023/08/20 02:41:02;;;;;;;15.75;11.38;;;;;;;17.43;86.00;97874.03;10326042;28;20061;-54
2023/08/20 02:46:02;;;;;;;16.15;12.40;;;;;;;17.39;86.54;97874.16;10326152;28;20038;-54
2023/08/20 02:51:01;;;;;;;15.35;10.98;;;;;;;17.35;86.63;97879.47;10323905;28;20554;-54
2023/08/20 02:56:00;;;;;;;16.08;12.10;;;;;;;17.21;86.60;97867.59;10325710;28;20488;-54
2023/08/20 03:00:59;;;;;;;14.32;11.15;;;;;;;17.16;87.33;97895.72;10325919;28;20029;-54
2023/08/20 03:05:58;;;;;;;13.27;11.57;;;;;;;17.09;87.36;97900.25;10323601;28;20133;-55
2023/08/20 03:10:57;;;;;;;15.57;11.68;;;;;;;17.03;87.34;97896.03;10325739;28;20061;-54
2023/08/20 03:15:56;;;;;;;14.30;12.43;;;;;;;17.04;87.58;97899.50;10324115;28;20116;-54
2023/08/20 03:20:56;;;;;;;16.35;12.55;;;;;;;16.98;87.90;97904.88;10325928;28;20120;-54
2023/08/20 03:25:58;;;;;;;16.67;12.90;;;;;;;16.63;87.51;97843.66;10323895;28;20069;-54
2023/08/20 03:31:00;;;;;;;15.07;13.05;;;;;;;16.91;87.69;97891.06;10325204;28;20456;-54
2023/08/20 03:35:59;;;;;;;16.75;13.13;;;;;;;16.89;87.94;97893.75;10324859;28;20068;-54
2023/08/20 03:40:58;;;;;;;16.95;13.68;;;;;;;16.88;88.03;97897.25;10325144;28;20039;-54
2023/08/20 03:45:57;;;;;;;17.17;13.10;;;;;;;16.89;88.20;97904.22;10323924;28;20084;-54
2023/08/20 03:50:56;;;;;;;17.85;14.13;;;;;;;16.85;88.28;97894.69;10324787;28;20040;-54
2023/08/20 03:55:55;;;;;;;23.73;15.18;;;;;;;16.93;88.23;97900.63;10323647;28;20068;-54
2023/08/20 04:00:55;;;;;;;22.40;17.08;;;;;;;16.96;87.93;97904.94;10323687;28;20023;-54
2023/08/20 04:05:54;;;;;;;21.23;15.60;;;;;;;17.00;87.94;97898.69;10330713;28;20103;-54
2023/08/20 04:10:53;;;;;;;20.58;15.48;;;;;;;17.04;87.54;97904.75;10329554;28;20029;-55
2023/08/20 04:15:52;;;;;;;24.25;15.80;;;;;;;17.08;87.42;97901.16;10330948;28;20120;-54
2023/08/20 04:20:52;;;;;;;19.27;15.10;;;;;;;16.97;87.07;97882.22;10331528;28;20835;-54
2023/08/20 04:25:51;;;;;;;19.33;14.77;;;;;;;17.16;86.94;97916.69;10330028;28;20104;-54
2023/08/20 04:30:54;;;;;;;20.30;15.63;;;;;;;17.11;87.01;97903.69;10331613;28;20035;-54
2023/08/20 04:35:53;;;;;;;18.17;15.15;;;;;;;17.02;88.07;97919.66;10332525;28;20100;-54
2023/08/20 04:40:52;;;;;;;20.50;15.65;;;;;;;17.15;87.67;97921.09;10334180;28;20064;-54
2023/08/20 04:45:51;;;;;;;20.50;14.63;;;;;;;17.22;87.70;97924.41;10316923;28;20045;-54
2023/08/20 04:50:50;;;;;;;21.67;13.05;;;;;;;17.31;87.87;97929.44;10339347;28;20108;-54
2023/08/20 04:55:49;;;;;;;14.30;12.43;;;;;;;17.42;87.55;97922.13;10334766;28;20495;-54
2023/08/20 05:00:48;;;;;;;17.40;12.48;;;;;;;17.53;87.76;97930.59;10330728;28;20035;-54
2023/08/20 05:05:50;;;;;;;16.88;12.52;;;;;;;17.65;86.85;97911.03;10333047;28;20048;-54
2023/08/20 05:10:50;;;;;;;16.10;12.40;;;;;;;17.86;86.57;97914.00;10332863;28;20064;-54
2023/08/20 05:15:49;;;;;;;16.48;12.35;;;;;;;18.01;86.71;97931.09;10325761;28;20072;-55
2023/08/20 05:20:48;;;;;;;16.27;12.10;;;;;;;18.21;85.66;97920.88;10326636;28;20048;-55
2023/08/20 05:25:47;;;;;;;15.90;12.32;;;;;;;18.39;84.83;97932.63;10328661;28;20112;-55
2023/08/20 05:30:54;;;;;;;15.57;12.38;;;;;;;18.61;84.07;97932.84;10332672;28;20108;-55
2023/08/20 05:35:53;;;;;;;15.73;11.68;;;;;;;18.82;83.95;97947.13;10329770;28;20060;-55
2023/08/20 05:40:52;;;;;;;28.52;12.70;;;;;;;19.11;83.62;97942.69;10328974;28;20029;-55
2023/08/20 05:45:51;;;;;;;13.93;11.13;;;;;;;19.37;81.48;97934.81;10327393;28;20597;-55
2023/08/20 05:50:50;;;;;;;16.08;11.32;;;;;;;19.52;80.39;97922.91;10329579;28;20043;-55
2023/08/20 05:55:49;;;;;;;11.77;10.45;;;;;;;19.85;79.73;97947.22;10327723;28;20021;-55
2023/08/20 06:00:48;;;;;;;19.65;10.23;;;;;;;20.17;78.53;97947.00;10326581;28;20053;-55
2023/08/20 06:05:47;;;;;;;12.10;9.60;;;;;;;20.44;77.44;97939.84;10328259;28;20105;-55
2023/08/20 06:10:46;;;;;;;12.68;9.88;;;;;;;20.71;76.29;97946.72;10327377;28;20026;-55
2023/08/20 06:15:45;;;;;;;14.93;10.50;;;;;;;20.72;74.25;97931.75;10329067;28;20112;-55
2023/08/20 06:20:44;;;;;;;13.85;10.82;;;;;;;21.00;74.07;97949.13;10327185;28;20124;-55
2023/08/20 06:25:43;;;;;;;14.10;9.55;;;;;;;21.06;74.46;97952.38;10325167;28;20044;-55
2023/08/20 06:30:42;;;;;;;12.40;10.95;;;;;;;21.10;74.13;97946.06;10326035;28;20116;-55
2023/08/20 06:35:43;;;;;;;12.48;9.90;;;;;;;21.26;74.25;97950.72;10329098;28;20021;-55
2023/08/20 06:40:42;;;;;;;12.27;9.13;;;;;;;21.32;73.51;97903.81;10343222;28;20069;-58
2023/08/20 06:45:41;;;;;;;14.38;10.68;;;;;;;21.84;71.60;97953.56;10366702;28;20043;-56
2023/08/20 06:50:41;;;;;;;13.32;9.40;;;;;;;21.83;69.72;97916.63;10367226;28;20025;-55
2023/08/20 06:55:40;;;;;;;14.52;8.98;;;;;;;22.12;69.22;97949.75;10366195;28;20495;-56
2023/08/20 07:00:39;;;;;;;13.25;9.55;;;;;;;22.24;68.69;97953.63;10366582;28;20523;-55
2023/08/20 07:05:38;;;;;;;12.70;8.90;;;;;;;22.48;67.19;97949.00;10364240;28;20032;-55
2023/08/20 07:10:37;;;;;;;11.45;8.70;;;;;;;22.75;66.14;97953.03;10366275;28;20108;-56
2023/08/20 07:15:36;;;;;;;11.45;8.38;;;;;;;23.02;65.26;97953.50;10361578;28;20037;-55
2023/08/20 07:20:35;;;;;;;10.80;7.97;;;;;;;23.26;63.77;97957.69;10364761;28;20544;-55
2023/08/20 07:25:37;;;;;;;11.38;9.00;;;;;;;23.34;62.06;97939.63;10364564;28;20472;-56
2023/08/20 07:30:36;;;;;;;10.55;8.05;;;;;;;23.63;61.57;97920.50;10362263;28;20134;-56
2023/08/20 07:35:35;;;;;;;10.68;7.75;;;;;;;24.06;59.45;97939.47;10362821;28;20128;-56
2023/08/20 07:40:34;;;;;;;26.98;9.15;;;;;;;24.16;58.73;97904.50;10371811;28;20120;-56
2023/08/20 07:45:33;;;;;;;12.70;7.88;;;;;;;24.66;57.59;97951.31;10368230;28;20049;-55
2023/08/20 07:50:32;;;;;;;11.90;7.55;;;;;;;24.56;57.13;97899.69;10368490;28;20039;-56
2023/08/20 07:55:31;;;;;;;12.77;8.20;;;;;;;24.99;56.77;97924.75;10372846;28;20027;-56
2023/08/20 08:00:30;;;;;;;9.68;7.38;;;;;;;25.28;56.09;97933.66;10372262;28;20116;-55
2023/08/20 08:05:29;;;;;;;13.15;7.72;;;;;;;25.15;54.92;97903.44;10372405;28;20116;-56
2023/08/20 08:10:29;;;;;;;11.63;7.95;;;;;;;25.31;54.17;97898.94;10373581;28;20032;-56
2023/08/20 08:15:27;;;;;;;11.05;7.25;;;;;;;25.86;53.54;97929.41;10372908;28;20056;-57
2023/08/20 08:20:26;;;;;;;10.85;6.90;;;;;;;26.04;53.31;97921.25;10373768;28;20028;-56
2023/08/20 08:25:26;;;;;;;11.43;7.35;;;;;;;26.29;52.94;97918.81;10372153;28;20029;-56
2023/08/20 08:30:25;;;;;;;9.85;7.18;;;;;;;26.60;51.91;97926.69;10372472;28;20056;-56
2023/08/20 08:35:24;;;;;;;13.80;7.15;;;;;;;26.82;50.90;97921.69;10371991;28;20056;-56
2023/08/20 08:40:29;;;;;;;9.63;6.70;;;;;;;26.76;47.55;97888.31;10371514;28;20024;-56
2023/08/20 08:45:29;;;;;;;12.90;7.28;;;;;;;27.18;46.82;97912.28;10370647;28;20199;-56
2023/08/20 08:50:29;;;;;;;10.30;6.53;;;;;;;27.20;46.15;97873.91;10366222;28;20538;-56
2023/08/20 08:55:28;;;;;;;10.25;6.32;;;;;;;27.59;43.96;97916.69;10370555;28;20071;-56
2023/08/20 09:00:27;;;;;;;8.48;6.72;;;;;;;27.49;42.69;97884.44;10368739;28;20108;-56
2023/08/20 09:05:26;;;;;;;8.05;6.15;;;;;;;27.93;41.33;97901.03;10369308;28;20029;-56
2023/08/20 09:10:27;;;;;;;7.32;5.68;;;;;;;28.22;40.43;97896.34;10367752;28;20052;-56
2023/08/20 09:15:33;;;;;;;6.68;5.88;;;;;;;28.37;39.92;97897.94;10364630;28;20128;-56
2023/08/20 09:20:38;;;;;;;8.90;5.53;;;;;;;28.32;38.19;97888.56;10370735;28;20056;-56
2023/08/20 09:25:37;;;;;;;9.23;6.18;;;;;;;28.38;38.80;97896.09;10368764;28;20056;-56
2023/08/20 09:30:39;;;;;;;6.07;5.32;;;;;;;28.23;37.75;97836.69;10364734;28;20031;-56
2023/08/20 09:35:38;;;;;;;7.13;5.43;;;;;;;28.38;37.09;97854.25;10368535;28;20044;-55
2023/08/20 09:40:37;;;;;;;7.63;5.78;;;;;;;28.68;37.44;97890.41;10372029;28;20086;-56
2023/08/20 09:45:37;;;;;;;5.75;4.97;;;;;;;28.70;36.74;97883.13;10371042;28;20071;-56
2023/08/20 09:50:37;;;;;;;7.38;5.38;;;;;;;28.87;37.08;97884.56;10372350;28;20052;-56
2023/08/20 09:55:39;;;;;;;6.47;5.38;;;;;;;28.86;37.55;97889.06;10371731;28;20051;-56
2023/08/20 10:00:38;;;;;;;8.00;5.35;;;;;;;29.00;36.14;97861.31;10372017;28;20483;-57
2023/08/20 10:05:38;;;;;;;8.77;5.30;;;;;;;29.00;37.57;97889.88;10372299;28;20063;-56
2023/08/20 10:10:37;;;;;;;7.43;5.53;;;;;;;28.91;37.60;97896.75;10370974;28;20490;-56
2023/08/20 10:15:38;;;;;;;12.20;5.43;;;;;;;27.70;36.91;97699.97;10372051;28;20052;-57
2023/08/20 10:20:40;;;;;;;6.95;5.60;;;;;;;28.94;37.29;97871.63;10368950;28;20062;-56
2023/08/20 10:25:43;;;;;;;6.07;5.15;;;;;;;29.26;37.34;97874.59;10373600;28;20045;-57
2023/08/20 10:31:11;;;;;;;7.18;5.28;;;;;;;29.46;35.55;97868.59;10368086;28;20052;-57
2023/08/20 10:36:22;;;;;;;6.55;5.00;;;;;;;29.38;35.39;97870.13;10369749;28;20047;-57
2023/08/20 10:41:28;;;;;;;7.15;5.13;;;;;;;29.49;35.07;97867.50;10365706;28;20128;-57
2023/08/20 10:46:31;;;;;;;6.32;4.63;;;;;;;29.79;34.84;97861.59;10364850;28;20064;-56
2023/08/20 10:51:35;;;;;;;6.75;4.63;;;;;;;29.74;35.30;97853.06;10362350;28;20486;-57
2023/08/20 10:56:54;;;;;;;5.63;4.70;;;;;;;29.89;34.15;97857.25;10365936;28;20052;-56
2023/08/20 11:01:56;;;;;;;5.68;4.55;;;;;;;29.91;34.06;97823.22;10364382;28;20056;-56
2023/08/20 11:06:58;;;;;;;6.63;4.53;;;;;;;30.09;33.84;97822.72;10364770;28;20124;-57
2023/08/20 11:11:58;;;;;;;7.07;4.63;;;;;;;30.47;34.35;97832.22;10364717;28;20092;-56
2023/08/20 11:16:57;;;;;;;9.13;5.03;;;;;;;30.50;32.65;97829.28;10367049;28;20064;-56
2023/08/20 11:21:56;;;;;;;5.80;4.13;;;;;;;30.57;32.62;97830.47;10366347;28;20179;-56
2023/08/20 11:26:55;;;;;;;5.82;4.70;;;;;;;30.79;32.75;97820.66;10369163;28;20763;-56
2023/08/20 11:31:55;;;;;;;6.18;5.00;;;;;;;31.01;32.32;97817.06;10365666;28;20524;-56
2023/08/20 11:36:54;;;;;;;9.93;4.50;;;;;;;30.78;31.24;97781.47;10365919;28;20052;-56
2023/08/20 11:41:54;;;;;;;6.65;4.80;;;;;;;30.82;31.77;97764.13;10364467;28;20076;-56
2023/08/20 11:46:53;;;;;;;6.75;4.97;;;;;;;30.62;30.20;97689.00;10365808;28;20072;-56
2023/08/20 11:51:52;;;;;;;7.25;4.13;;;;;;;31.29;30.53;97772.72;10364398;28;20021;-56
2023/08/20 11:56:52;;;;;;;6.22;4.68;;;;;;;31.27;29.84;97796.13;10364780;28;20059;-56
2023/08/20 12:02:05;;;;;;;5.65;4.45;;;;;;;31.66;30.33;97774.91;10367102;28;20052;-56
2023/08/20 12:07:14;;;;;;;5.97;4.65;;;;;;;31.72;29.69;97777.06;10363667;28;20108;-56
2023/08/20 12:12:13;;;;;;;7.25;4.57;;;;;;;31.73;29.92;97781.44;10367266;28;20059;-56
2023/08/20 12:17:12;;;;;;;7.00;4.38;;;;;;;31.42;28.56;97684.84;10365537;28;20108;-57
2023/08/20 12:22:12;;;;;;;5.55;4.20;;;;;;;31.63;28.02;97718.84;10367105;28;20024;-57
2023/08/20 12:27:10;;;;;;;5.93;4.30;;;;;;;31.42;27.97;97686.69;10372396;28;20536;-57
2023/08/20 12:32:09;;;;;;;4.43;3.83;;;;;;;31.87;27.83;97756.09;10371454;28;20593;-57
2023/08/20 12:37:08;;;;;;;7.28;4.00;;;;;;;31.98;27.26;97751.47;10373002;28;20247;-57
2023/08/20 12:42:08;;;;;;;5.15;3.67;;;;;;;31.89;26.95;97749.59;10373496;28;20057;-57
2023/08/20 12:47:07;;;;;;;4.28;3.17;;;;;;;32.21;26.12;97746.75;10375289;28;20052;-57
2023/08/20 12:52:05;;;;;;;5.90;3.67;;;;;;;32.07;26.76;97741.78;10372612;28;20028;-57
2023/08/20 12:57:04;;;;;;;7.32;3.90;;;;;;;32.34;26.58;97735.78;10373797;28;20025;-57
2023/08/20 13:02:03;;;;;;;4.28;3.67;;;;;;;32.32;25.79;97735.06;10374597;28;20558;-57
2023/08/20 13:07:03;;;;;;;5.22;3.58;;;;;;;32.31;26.79;97725.28;10374093;28;20060;-57
2023/08/20 13:12:05;;;;;;;4.82;3.60;;;;;;;32.28;26.23;97698.72;10373532;28;20060;-57
2023/08/20 13:17:05;;;;;;;4.75;3.95;;;;;;;32.08;26.17;97676.34;10374177;28;20518;-57
2023/08/20 13:22:04;;;;;;;5.88;3.90;;;;;;;32.29;25.85;97707.63;10373290;28;20068;-57
2023/08/20 13:27:03;;;;;;;4.93;3.63;;;;;;;32.44;25.86;97716.97;10373402;28;20806;-57
2023/08/20 13:32:02;;;;;;;4.32;3.92;;;;;;;32.18;26.46;97687.13;10373400;28;20387;-57
2023/08/20 13:37:01;;;;;;;4.85;4.05;;;;;;;32.23;27.37;97684.88;10369522;28;20059;-57
2023/08/20 13:42:00;;;;;;;4.72;4.00;;;;;;;32.57;26.51;97673.72;10369506;28;20147;-57
2023/08/20 13:46:59;;;;;;;7.25;4.18;;;;;;;32.37;26.51;97697.88;10369270;28;20039;-57
2023/08/20 13:51:58;;;;;;;4.35;3.95;;;;;;;32.46;27.02;97709.63;10368302;28;20307;-58
2023/08/20 13:56:57;;;;;;;6.53;3.67;;;;;;;32.52;27.44;97708.22;10369435;28;20638;-57
2023/08/20 14:01:56;;;;;;;8.07;4.50;;;;;;;31.87;26.64;97589.69;10362984;28;20037;-57
2023/08/20 14:06:55;;;;;;;5.50;4.30;;;;;;;32.55;27.87;97698.03;10365586;28;20108;-57
2023/08/20 14:11:54;;;;;;;4.80;4.05;;;;;;;32.33;27.91;97683.03;10370037;28;20029;-57
2023/08/20 14:16:53;;;;;;;6.03;4.63;;;;;;;32.48;28.00;97707.63;10367463;28;20032;-57
2023/08/20 14:21:52;;;;;;;6.35;4.30;;;;;;;32.53;27.73;97710.75;10367256;28;20116;-57
2023/08/20 14:26:51;;;;;;;6.30;4.35;;;;;;;32.45;28.60;97702.53;10364601;28;20039;-57
2023/08/20 14:31:50;;;;;;;5.25;4.22;;;;;;;32.48;27.85;97712.16;10365226;28;20029;-55
2023/08/20 14:36:49;;;;;;;5.80;4.28;;;;;;;32.37;27.68;97700.56;10368183;28;20031;-57
2023/08/20 14:41:48;;;;;;;6.18;4.45;;;;;;;32.49;28.25;97709.34;10365304;28;20045;-57
2023/08/20 14:46:47;;;;;;;6.38;4.47;;;;;;;32.25;28.20;97712.44;10364913;28;20133;-57
2023/08/20 14:51:47;;;;;;;5.80;4.60;;;;;;;32.38;28.11;97723.72;10364741;28;20132;-57
2023/08/20 14:56:46;;;;;;;5.47;4.15;;;;;;;31.91;28.34;97667.13;10364574;28;20125;-57
2023/08/20 15:01:45;;;;;;;6.40;4.60;;;;;;;31.93;28.67;97689.28;10365550;28;20129;-57
2023/08/20 15:06:43;;;;;;;5.45;4.47;;;;;;;32.17;28.65;97720.31;10364669;28;20021;-57
2023/08/20 15:11:43;;;;;;;5.93;4.57;;;;;;;32.09;29.18;97722.84;10364755;28;20574;-57
2023/08/20 15:16:42;;;;;;;7.45;4.72;;;;;;;32.00;28.84;97713.75;10363537;28;20060;-57
2023/08/20 15:21:41;;;;;;;6.68;4.53;;;;;;;32.00;29.14;97725.34;10360071;28;20067;-57
2023/08/20 15:26:40;;;;;;;7.57;4.47;;;;;;;32.06;29.53;97725.78;10360788;28;20124;-57
2023/08/20 15:31:39;;;;;;;6.70;4.93;;;;;;;31.89;29.16;97700.44;10360981;28;20064;-57
2023/08/20 15:36:38;;;;;;;8.18;5.10;;;;;;;31.58;29.74;97655.72;10361899;28;20090;-57
2023/08/20 15:41:37;;;;;;;6.82;4.90;;;;;;;32.04;28.72;97725.97;10365604;28;20135;-57
2023/08/20 15:46:36;;;;;;;6.47;4.63;;;;;;;31.95;29.19;97719.53;10365071;28;20048;-57
2023/08/20 15:51:38;;;;;;;6.28;4.63;;;;;;;31.92;29.62;97716.25;10358742;28;20029;-57
2023/08/20 15:56:38;;;;;;;6.68;4.72;;;;;;;31.66;29.30;97715.91;10361563;28;20452;-57
2023/08/20 16:01:38;;;;;;;5.28;4.50;;;;;;;31.68;29.28;97719.28;10366950;28;20060;-57
2023/08/20 16:06:37;;;;;;;5.97;5.05;;;;;;;31.20;29.71;97672.47;10365832;28;20116;-57
2023/08/20 16:11:36;;;;;;;5.85;4.68;;;;;;;31.46;30.12;97726.50;10365818;28;20029;-57
2023/08/20 16:16:35;;;;;;;6.00;4.15;;;;;;;31.36;30.20;97731.00;10365619;28;20028;-57
2023/08/20 16:21:34;;;;;;;5.40;4.70;;;;;;;31.16;30.22;97698.69;10363881;28;20035;-57
2023/08/20 16:26:33;;;;;;;7.95;4.65;;;;;;;31.22;30.51;97728.63;10363227;28;20515;-57
2023/08/20 16:31:32;;;;;;;7.15;5.30;;;;;;;30.89;30.61;97727.81;10367126;28;20566;-57
2023/08/20 16:36:31;;;;;;;9.30;5.20;;;;;;;30.92;31.45;97743.66;10362866;28;20025;-57
2023/08/20 16:41:30;;;;;;;6.53;5.18;;;;;;;30.84;31.42;97746.09;10364534;28;20593;-57
2023/08/20 16:46:29;;;;;;;7.68;4.60;;;;;;;30.65;31.73;97736.94;10359816;28;20542;-57
2023/08/20 16:51:29;;;;;;;9.75;4.93;;;;;;;30.62;32.38;97755.09;10362227;28;20104;-57
2023/08/20 16:56:28;;;;;;;8.38;5.30;;;;;;;30.43;32.14;97763.81;10363459;28;20103;-57
2023/08/20 17:01:27;;;;;;;7.60;5.75;;;;;;;30.22;32.83;97763.72;10359906;28;20428;-57
2023/08/20 17:06:26;;;;;;;11.70;6.65;;;;;;;30.06;32.90;97770.28;10364010;28;20565;-57
2023/08/20 17:11:25;;;;;;;7.15;5.40;;;;;;;29.87;33.48;97775.41;10364413;28;20415;-57
2023/08/20 17:16:24;;;;;;;7.75;5.63;;;;;;;29.64;34.43;97771.84;10359697;28;20024;-57
2023/08/20 17:21:23;;;;;;;11.95;6.10;;;;;;;29.40;35.61;97779.97;10364516;28;20163;-57
2023/08/20 17:26:22;;;;;;;10.18;5.68;;;;;;;28.81;35.63;97756.84;10362655;28;20043;-57
2023/08/20 17:31:21;;;;;;;12.20;7.05;;;;;;;28.67;36.92;97761.38;10360250;28;20115;-57
2023/08/20 17:36:20;;;;;;;10.38;7.05;;;;;;;28.56;38.48;97774.66;10360151;28;20043;-57
2023/08/20 17:41:19;;;;;;;18.08;8.07;;;;;;;28.10;39.03;97750.47;10360434;28;20021;-57
2023/08/20 17:46:18;;;;;;;9.95;6.32;;;;;;;27.85;39.26;97762.91;10362751;28;20476;-56
2023/08/20 17:51:17;;;;;;;11.48;6.47;;;;;;;27.74;39.92;97798.31;10360783;28;20055;-56
2023/08/20 17:56:16;;;;;;;9.50;6.65;;;;;;;27.44;40.62;97808.41;10358758;28;20098;-56
2023/08/20 18:01:15;;;;;;;10.98;6.53;;;;;;;27.20;41.07;97809.97;10357472;28;20111;-56
2023/08/20 18:06:14;;;;;;;8.50;5.95;;;;;;;26.99;42.01;97812.28;10355538;28;20037;-56
2023/08/20 18:11:13;;;;;;;8.05;6.30;;;;;;;26.76;42.39;97821.75;10360208;28;20534;-56
2023/08/20 18:16:12;;;;;;;9.63;7.82;;;;;;;26.40;42.39;97803.75;10356845;28;20531;-56
2023/08/20 18:21:11;;;;;;;10.63;7.40;;;;;;;26.32;43.01;97822.00;10359450;28;20025;-56
2023/08/20 18:26:10;;;;;;;9.32;6.18;;;;;;;26.23;43.20;97839.41;10358261;28;20032;-56
2023/08/20 18:31:09;;;;;;;9.77;6.65;;;;;;;25.93;44.19;97839.50;10359350;28;20067;-56
2023/08/20 18:36:08;;;;;;;9.52;6.50;;;;;;;25.78;44.58;97843.94;10360998;28;20434;-56
2023/08/20 18:41:15;;;;;;;11.20;6.40;;;;;;;25.63;45.20;97844.88;10357644;28;20040;-56
2023/08/20 18:46:14;;;;;;;10.50;6.40;;;;;;;25.18;46.25;97822.78;10356150;28;20112;-56
2023/08/20 18:51:17;;;;;;;9.27;6.90;;;;;;;25.22;47.19;97862.34;10355711;28;20491;-56
2023/08/20 18:56:16;;;;;;;9.75;7.03;;;;;;;25.03;47.50;97853.72;10360392;28;20479;-56
2023/08/20 19:01:15;;;;;;;12.57;7.43;;;;;;;24.72;48.55;97841.34;10355432;28;20419;-56
2023/08/20 19:06:14;;;;;;;8.05;7.05;;;;;;;24.61;49.17;97865.81;10355339;28;20041;-56
2023/08/20 19:11:13;;;;;;;9.55;7.00;;;;;;;24.51;49.03;97875.22;10357041;28;20554;-56
2023/08/20 19:16:12;;;;;;;11.93;7.22;;;;;;;24.43;48.78;97876.53;10355888;28;20500;-56
2023/08/20 19:21:11;;;;;;;14.18;7.82;;;;;;;24.08;49.02;97829.84;10353286;28;20390;-56
2023/08/20 19:26:10;;;;;;;15.95;8.27;;;;;;;24.16;49.78;97864.72;10357440;28;20531;-57
2023/08/20 19:31:09;;;;;;;12.93;7.97;;;;;;;24.01;50.16;97850.53;10358440;28;20111;-57
2023/08/20 19:36:08;;;;;;;10.75;7.90;;;;;;;24.00;51.40;97870.00;10362922;28;20128;-56
2023/08/20 19:41:07;;;;;;;14.68;8.60;;;;;;;23.96;51.41;97853.41;10364165;28;20028;-57
2023/08/20 19:46:06;;;;;;;13.77;8.55;;;;;;;24.04;51.83;97877.69;10364402;28;20029;-56
2023/08/20 19:51:05;;;;;;;10.70;7.70;;;;;;;23.95;51.79;97896.75;10362345;28;20036;-56
2023/08/20 19:56:04;;;;;;;14.75;8.30;;;;;;;23.81;51.34;97889.53;10361297;28;20128;-56
2023/08/20 20:01:06;;;;;;;10.18;7.55;;;;;;;22.82;51.81;97735.78;10360470;28;20029;-56
2023/08/20 20:06:05;;;;;;;9.52;7.70;;;;;;;23.47;51.51;97861.31;10365962;28;20060;-56
2023/08/20 20:11:04;;;;;;;12.15;8.20;;;;;;;23.31;51.68;97855.03;10363029;28;20056;-55
2023/08/20 20:16:04;;;;;;;11.77;7.80;;;;;;;23.16;51.82;97849.59;10361461;28;20028;-55
2023/08/20 20:21:04;;;;;;;10.32;8.13;;;;;;;22.95;52.11;97838.28;10361122;28;20535;-56
2023/08/20 20:26:04;;;;;;;10.65;8.18;;;;;;;23.08;52.20;97887.97;10361244;28;20180;-55
2023/08/20 20:31:05;;;;;;;11.77;8.43;;;;;;;23.13;52.65;97910.63;10359071;28;20117;-55
2023/08/20 20:36:05;;;;;;;11.55;8.00;;;;;;;22.84;52.82;97876.81;10364046;28;20120;-56
2023/08/20 20:41:07;;;;;;;12.57;9.57;;;;;;;22.92;54.81;97896.66;10366775;28;20127;-55
2023/08/20 20:46:06;;;;;;;16.13;10.88;;;;;;;23.07;55.83;97921.53;10365862;28;20555;-55
2023/08/20 20:51:05;;;;;;;15.57;10.77;;;;;;;22.62;56.41;97879.56;10364875;28;20051;-55
2023/08/20 20:56:04;;;;;;;13.90;10.10;;;;;;;22.49;57.16;97872.22;10363901;28;20033;-55
2023/08/20 21:01:03;;;;;;;12.63;10.48;;;;;;;22.70;57.37;97931.19;10361865;28;20031;-55
2023/08/20 21:06:07;;;;;;;12.80;9.88;;;;;;;22.61;58.04;97921.03;10363106;28;20037;-55
2023/08/20 21:11:05;;;;;;;12.60;8.48;;;;;;;22.51;58.10;97933.00;10364698;28;20239;-55
2023/08/20 21:16:04;;;;;;;12.32;8.73;;;;;;;22.42;57.97;97928.97;10362628;28;20116;-55
2023/08/20 21:21:03;;;;;;;12.52;8.10;;;;;;;22.25;57.35;97913.91;10363832;28;20040;-55
2023/08/20 21:26:03;;;;;;;12.43;9.52;;;;;;;22.27;57.25;97941.13;10363506;28;20041;-55
2023/08/20 21:31:02;;;;;;;12.88;8.48;;;;;;;22.23;57.98;97939.53;10359781;28;20132;-55
2023/08/20 21:36:01;;;;;;;17.33;10.88;;;;;;;22.17;58.97;97950.38;10363936;28;20098;-55
2023/08/20 21:41:00;;;;;;;14.80;10.18;;;;;;;22.04;61.25;97954.50;10359401;28;20496;-55
2023/08/20 21:45:59;;;;;;;14.80;9.57;;;;;;;21.79;61.29;97923.84;10357978;28;20052;-55
2023/08/20 21:50:58;;;;;;;19.35;10.23;;;;;;;21.89;61.55;97961.28;10361497;28;20073;-55
2023/08/20 21:55:57;;;;;;;12.80;9.70;;;;;;;21.60;62.41;97934.34;10360772;28;20043;-55
2023/08/20 22:00:56;;;;;;;11.20;8.85;;;;;;;21.53;62.55;97939.03;10359537;28;20033;-55
2023/08/20 22:05:55;;;;;;;13.60;9.52;;;;;;;21.65;62.75;97961.41;10361363;28;20412;-55
2023/08/20 22:10:58;;;;;;;14.55;9.50;;;;;;;21.40;63.11;97940.47;10353560;28;20131;-55
2023/08/20 22:15:57;;;;;;;12.80;10.05;;;;;;;21.29;64.41;97935.63;10355286;28;20119;-55
2023/08/20 22:20:56;;;;;;;15.27;10.35;;;;;;;21.31;65.00;97951.41;10362098;28;20148;-55
2023/08/20 22:25:55;;;;;;;10.55;9.27;;;;;;;21.18;65.99;97952.81;10364856;28;20040;-55
2023/08/20 22:30:54;;;;;;;13.00;9.95;;;;;;;21.05;66.40;97958.56;10366915;28;20504;-55
2023/08/20 22:35:53;;;;;;;12.02;9.40;;;;;;;20.97;66.76;97965.09;10367683;28;20493;-55
2023/08/20 22:40:52;;;;;;;12.07;9.18;;;;;;;20.77;66.58;97932.41;10366881;28;20482;-55
2023/08/20 22:45:52;;;;;;;12.15;9.23;;;;;;;20.86;66.77;97957.56;10367763;28;20072;-56
2023/08/20 22:50:51;;;;;;;12.95;9.57;;;;;;;20.81;67.38;97949.00;10367216;28;20116;-55
2023/08/20 22:55:51;;;;;;;12.00;10.45;;;;;;;20.77;67.67;97953.50;10366645;28;20132;-55
2023/08/20 23:00:49;;;;;;;11.45;9.13;;;;;;;20.69;67.79;97951.19;10367502;28;20041;-55